Time;durP1;ratioP1;P1;durP2;ratioP2;P2;SDS_P1;SDS_P2;PMS_P1;PMS_P2;Temp;Humidity;BMP_temperature;BMP_pressure;BME280_temperature;BME280_humidity;BME280_pressure;Samples;Min_cycle;Max_cycle;Signal;HPM_P1;HPM_P2
2023/03/12 00:02:25;;;;;;;5.18;1.90;;;;;;;;;;5030914;28;20062;-66
2023/03/12 00:04:55;;;;;;;11.00;1.85;;;;;;;;;;5027544;28;20057;-63
2023/03/12 00:07:25;;;;;;;3.78;1.70;;;;;;;;;;5027012;28;20058;-63
2023/03/12 00:09:55;;;;;;;5.13;1.65;;;;;;;;;;5026581;28;20204;-66
2023/03/12 00:12:25;;;;;;;3.78;1.50;;;;;;;;;;5027454;28;20521;-64
2023/03/12 00:14:56;;;;;;;13.63;1.85;;;;;;;;;;5006985;28;20528;-62
2023/03/12 00:17:27;;;;;;;6.50;1.77;;;;;;;;;;5007301;28;20645;-68
2023/03/12 00:19:58;;;;;;;4.05;1.50;;;;;;;;;;5011702;28;20058;-61
2023/03/12 00:22:28;;;;;;;6.97;1.92;;;;;;;;;;4963270;28;20065;-62
2023/03/12 00:24:58;;;;;;;6.68;1.88;;;;;;;;;;4978721;28;20073;-62
2023/03/12 00:27:28;;;;;;;9.45;2.00;;;;;;;;;;4997329;28;20057;-64
2023/03/12 00:29:58;;;;;;;4.28;1.73;;;;;;;;;;5025973;28;20065;-64
2023/03/12 00:32:28;;;;;;;2.72;1.63;;;;;;;;;;5026242;28;20049;-63
2023/03/12 00:34:59;;;;;;;5.60;1.75;;;;;;;;;;5026471;28;20060;-63
2023/03/12 00:37:29;;;;;;;7.13;2.30;;;;;;;;;;5010849;28;20046;-64
2023/03/12 00:40:00;;;;;;;9.18;1.60;;;;;;;;;;4977158;28;20069;-62
2023/03/12 00:42:31;;;;;;;3.28;1.48;;;;;;;;;;5011439;28;20053;-65
2023/03/12 00:45:02;;;;;;;5.45;1.42;;;;;;;;;;5090812;28;20056;-62
2023/03/12 00:47:33;;;;;;;3.53;1.52;;;;;;;;;;5090737;28;20048;-61
2023/03/12 00:50:03;;;;;;;7.20;1.80;;;;;;;;;;5040518;28;20059;-62
2023/03/12 00:52:34;;;;;;;4.57;1.65;;;;;;;;;;5099745;28;20580;-63
2023/03/12 00:55:04;;;;;;;6.28;1.50;;;;;;;;;;5106383;28;20095;-65
2023/03/12 00:57:35;;;;;;;5.57;1.63;;;;;;;;;;5073916;28;20059;-63
2023/03/12 01:00:11;;;;;;;9.13;2.03;;;;;;;;;;5085928;28;20052;-63
2023/03/12 01:02:42;;;;;;;5.03;1.90;;;;;;;;;;5045772;28;20068;-63
2023/03/12 01:05:12;;;;;;;4.65;1.85;;;;;;;;;;5046010;28;20060;-64
2023/03/12 01:07:43;;;;;;;3.95;1.60;;;;;;;;;;5026885;28;20049;-62
2023/03/12 01:10:14;;;;;;;6.82;1.77;;;;;;;;;;5010280;28;20057;-62
2023/03/12 01:12:46;;;;;;;4.35;1.98;;;;;;;;;;5010613;28;20145;-62
2023/03/12 01:15:18;;;;;;;4.43;1.42;;;;;;;;;;5009726;28;20061;-62
2023/03/12 01:17:48;;;;;;;3.25;1.55;;;;;;;;;;4961141;28;20093;-63
2023/03/12 01:20:18;;;;;;;4.40;1.45;;;;;;;;;;5006081;28;20062;-68
2023/03/12 01:22:48;;;;;;;5.47;1.33;;;;;;;;;;4973909;28;20071;-65
2023/03/12 01:25:19;;;;;;;8.85;1.80;;;;;;;;;;4985304;28;20053;-62
2023/03/12 01:27:49;;;;;;;6.78;1.73;;;;;;;;;;4949868;28;20059;-64
2023/03/12 01:30:19;;;;;;;9.32;1.85;;;;;;;;;;4965252;28;20050;-65
2023/03/12 01:32:52;;;;;;;3.63;1.52;;;;;;;;;;4929392;29;20156;-63
2023/03/12 01:35:25;;;;;;;5.75;1.83;;;;;;;;;;4947039;28;20063;-62
2023/03/12 01:37:55;;;;;;;4.93;1.75;;;;;;;;;;4943425;28;20055;-62
2023/03/12 01:40:27;;;;;;;8.80;2.08;;;;;;;;;;4980846;28;20570;-63
2023/03/12 01:42:57;;;;;;;5.70;1.52;;;;;;;;;;4987949;28;20058;-66
2023/03/12 01:46:09;;;;;;;5.95;2.10;;;;;;;;;;4969486;28;20050;-64
2023/03/12 01:49:11;;;;;;;7.45;1.83;;;;;;;;;;4931143;29;20059;-63
2023/03/12 01:51:50;;;;;;;4.78;1.70;;;;;;;;;;4908763;29;20063;-62
2023/03/12 01:54:30;;;;;;;8.32;1.90;;;;;;;;;;4904989;29;20059;-64
2023/03/12 01:57:03;;;;;;;5.28;1.65;;;;;;;;;;4890004;29;20061;-63
2023/03/12 01:59:42;;;;;;;4.55;1.63;;;;;;;;;;4893669;29;20059;-62
2023/03/12 02:02:14;;;;;;;6.45;1.73;;;;;;;;;;4850172;29;20061;-62
2023/03/12 02:04:46;;;;;;;4.95;1.73;;;;;;;;;;4852725;29;20046;-62
2023/03/12 02:07:17;;;;;;;4.40;1.50;;;;;;;;;;4836838;29;20101;-65
2023/03/12 02:09:48;;;;;;;8.32;1.80;;;;;;;;;;4815397;29;20435;-63
2023/03/12 02:12:18;;;;;;;3.80;1.80;;;;;;;;;;4833763;29;20061;-65
2023/03/12 02:14:48;;;;;;;5.35;1.70;;;;;;;;;;4796898;29;20079;-65
2023/03/12 02:17:19;;;;;;;3.78;1.60;;;;;;;;;;4795067;29;20475;-64
2023/03/12 02:20:22;;;;;;;6.20;2.10;;;;;;;;;;4797426;29;20062;-63
2023/03/12 02:23:18;;;;;;;6.40;1.85;;;;;;;;;;4774745;29;20067;-62
2023/03/12 02:25:53;;;;;;;7.43;1.80;;;;;;;;;;4742686;30;20056;-62
2023/03/12 02:28:27;;;;;;;4.53;1.67;;;;;;;;;;4752278;30;20062;-61
2023/03/12 02:31:01;;;;;;;7.47;1.95;;;;;;;;;;4766589;29;20064;-61
2023/03/12 02:33:31;;;;;;;7.57;1.80;;;;;;;;;;4779744;29;20055;-65
2023/03/12 02:36:01;;;;;;;5.05;1.58;;;;;;;;;;4770212;29;20059;-63
2023/03/12 02:38:44;;;;;;;5.35;1.83;;;;;;;;;;4827579;29;20062;-64
2023/03/12 02:42:00;;;;;;;5.05;2.08;;;;;;;;;;4815397;29;20668;-65
2023/03/12 02:44:33;;;;;;;5.78;1.77;;;;;;;;;;4829399;29;20446;-66
2023/03/12 02:47:03;;;;;;;3.90;1.67;;;;;;;;;;4834361;29;20131;-62
2023/03/12 02:49:34;;;;;;;5.30;2.00;;;;;;;;;;4837744;29;20145;-63
2023/03/12 02:52:04;;;;;;;4.20;1.80;;;;;;;;;;4815646;29;20065;-65
2023/03/12 02:54:34;;;;;;;5.45;2.42;;;;;;;;;;4856033;29;20069;-64
2023/03/12 02:57:04;;;;;;;11.65;1.90;;;;;;;;;;4815107;29;20064;-63
2023/03/12 02:59:34;;;;;;;4.50;1.63;;;;;;;;;;4871509;29;20065;-64
2023/03/12 03:02:08;;;;;;;5.90;2.00;;;;;;;;;;4907631;29;20083;-63
2023/03/12 03:04:38;;;;;;;;;;;;;;;;;;4904828;29;20060;-61
2023/03/12 03:07:08;;;;;;;6.70;2.00;;;;;;;;;;4871524;29;19927;-63
2023/03/12 03:09:38;;;;;;;5.60;1.92;;;;;;;;;;4870072;29;20064;-62
2023/03/12 03:12:09;;;;;;;5.50;1.73;;;;;;;;;;4857754;29;20064;-62
2023/03/12 03:14:39;;;;;;;4.57;1.73;;;;;;;;;;4892245;29;20076;-61
2023/03/12 03:17:09;;;;;;;4.07;2.03;;;;;;;;;;4872058;29;20057;-62
2023/03/12 03:19:39;;;;;;;5.82;1.80;;;;;;;;;;4855881;29;20049;-63
2023/03/12 03:22:10;;;;;;;7.10;1.90;;;;;;;;;;4890703;29;20068;-63
2023/03/12 03:24:40;;;;;;;4.70;1.70;;;;;;;;;;4891775;29;20075;-65
2023/03/12 03:27:10;;;;;;;4.32;1.75;;;;;;;;;;4907338;29;20643;-64
2023/03/12 03:29:40;;;;;;;7.07;1.77;;;;;;;;;;4903263;29;20060;-65
2023/03/12 03:32:10;;;;;;;4.53;1.80;;;;;;;;;;4862195;29;20065;-62
2023/03/12 03:34:42;;;;;;;5.63;2.00;;;;;;;;;;4869598;29;20068;-66
2023/03/12 03:37:12;;;;;;;4.50;2.05;;;;;;;;;;4871288;29;20060;-63
2023/03/12 03:39:43;;;;;;;5.15;1.73;;;;;;;;;;4832121;29;20776;-61
2023/03/12 03:42:12;;;;;;;4.43;1.48;;;;;;;;;;4847147;29;20069;-62
2023/03/12 03:44:43;;;;;;;7.85;1.63;;;;;;;;;;4855110;29;20065;-63
2023/03/12 03:47:14;;;;;;;13.68;1.55;;;;;;;;;;4852497;29;20069;-65
2023/03/12 03:49:44;;;;;;;7.65;1.92;;;;;;;;;;4832776;29;20069;-75
2023/03/12 03:52:14;;;;;;;5.57;1.92;;;;;;;;;;4858928;29;20801;-63
2023/03/12 03:54:44;;;;;;;9.68;1.73;;;;;;;;;;4869438;29;20060;-63
2023/03/12 03:57:14;;;;;;;4.07;1.92;;;;;;;;;;4861475;29;20493;-64
2023/03/12 03:59:43;;;;;;;3.63;1.63;;;;;;;;;;4866429;29;20565;-66
2023/03/12 04:02:13;;;;;;;7.32;1.55;;;;;;;;;;4853156;29;20058;-62
2023/03/12 04:04:44;;;;;;;6.18;1.60;;;;;;;;;;4873746;29;20057;-62
2023/03/12 04:07:15;;;;;;;5.95;1.63;;;;;;;;;;4830595;29;20433;-70
2023/03/12 04:09:45;;;;;;;6.13;1.98;;;;;;;;;;4796361;29;20053;-62
2023/03/12 04:12:14;;;;;;;5.07;1.85;;;;;;;;;;4826398;29;20069;-65
2023/03/12 04:14:44;;;;;;;4.20;1.60;;;;;;;;;;4824626;29;20062;-65
2023/03/12 04:17:14;;;;;;;6.18;2.05;;;;;;;;;;4814194;29;20099;-65
2023/03/12 04:19:44;;;;;;;8.60;1.85;;;;;;;;;;4814336;29;20066;-65
2023/03/12 04:22:14;;;;;;;5.93;1.85;;;;;;;;;;4806427;29;20797;-66
2023/03/12 04:24:44;;;;;;;5.90;1.80;;;;;;;;;;4814220;29;20430;-62
2023/03/12 04:27:14;;;;;;;6.13;1.92;;;;;;;;;;4836704;29;20399;-61
2023/03/12 04:29:44;;;;;;;4.15;1.70;;;;;;;;;;4869209;29;20053;-64
2023/03/12 04:32:15;;;;;;;5.70;1.90;;;;;;;;;;4845705;29;20058;-63
2023/03/12 04:34:45;;;;;;;2.50;1.58;;;;;;;;;;4851193;29;20481;-62
2023/03/12 04:37:17;;;;;;;5.53;1.85;;;;;;;;;;4800339;29;20062;-64
2023/03/12 04:39:47;;;;;;;6.20;1.88;;;;;;;;;;4790760;29;20432;-67
2023/03/12 04:42:17;;;;;;;3.47;2.10;;;;;;;;;;4826580;29;20059;-72
2023/03/12 04:44:51;;;;;;;3.90;1.60;;;;;;;;;;4862025;29;20057;-64
2023/03/12 04:47:21;;;;;;;8.35;2.60;;;;;;;;;;4872217;29;20520;-65
2023/03/12 04:49:51;;;;;;;5.88;1.55;;;;;;;;;;4835065;29;20064;-63
2023/03/12 04:52:21;;;;;;;7.68;1.50;;;;;;;;;;4821702;29;20533;-62
2023/03/12 04:54:53;;;;;;;4.35;1.75;;;;;;;;;;4839454;29;20054;-62
2023/03/12 04:57:23;;;;;;;9.98;1.95;;;;;;;;;;4820675;29;20408;-61
2023/03/12 04:59:53;;;;;;;6.60;1.60;;;;;;;;;;4839463;29;20211;-62
2023/03/12 05:02:24;;;;;;;4.90;1.73;;;;;;;;;;4836275;29;20062;-64
2023/03/12 05:04:56;;;;;;;4.03;1.73;;;;;;;;;;4808280;29;20569;-64
2023/03/12 05:07:26;;;;;;;;;;;;;;;;;;4817001;29;20058;-64
2023/03/12 05:09:56;;;;;;;4.30;1.70;;;;;;;;;;4838619;29;20290;-65
2023/03/12 05:12:26;;;;;;;3.28;1.73;;;;;;;;;;4834772;29;20058;-62
2023/03/12 05:14:55;;;;;;;3.28;1.55;;;;;;;;;;4844723;29;20057;-64
2023/03/12 05:17:26;;;;;;;4.18;1.40;;;;;;;;;;4847082;29;20593;-61
2023/03/12 05:19:57;;;;;;;8.18;1.92;;;;;;;;;;4820358;29;20047;-64
2023/03/12 05:22:27;;;;;;;5.90;1.58;;;;;;;;;;4830361;29;20181;-62
2023/03/12 05:24:57;;;;;;;3.47;1.33;;;;;;;;;;4809946;29;20058;-64
2023/03/12 05:27:27;;;;;;;3.05;1.60;;;;;;;;;;4861337;29;20076;-66
2023/03/12 05:30:00;;;;;;;6.22;1.85;;;;;;;;;;4862858;29;20057;-64
2023/03/12 05:32:31;;;;;;;4.40;1.65;;;;;;;;;;4870992;29;20049;-63
2023/03/12 05:35:01;;;;;;;3.20;1.50;;;;;;;;;;4846936;29;20125;-67
2023/03/12 05:37:32;;;;;;;6.13;1.52;;;;;;;;;;4849243;29;20803;-63
2023/03/12 05:40:03;;;;;;;2.10;1.30;;;;;;;;;;4844144;29;20505;-65
2023/03/12 05:42:32;;;;;;;7.82;1.42;;;;;;;;;;4838161;29;20427;-62
2023/03/12 05:45:04;;;;;;;3.45;1.27;;;;;;;;;;4830334;29;20105;-62
2023/03/12 05:47:35;;;;;;;5.38;1.35;;;;;;;;;;4831031;29;20054;-63
2023/03/12 05:50:05;;;;;;;4.57;1.30;;;;;;;;;;4821153;29;20055;-62
2023/03/12 05:52:36;;;;;;;6.18;1.65;;;;;;;;;;4812316;29;20074;-65
2023/03/12 05:55:06;;;;;;;5.00;1.58;;;;;;;;;;4830881;29;20546;-65
2023/03/12 05:57:36;;;;;;;7.65;1.27;;;;;;;;;;4833715;29;20523;-64
2023/03/12 06:00:07;;;;;;;3.15;1.25;;;;;;;;;;4834216;29;20551;-65
2023/03/12 06:02:51;;;;;;;6.13;1.20;;;;;;;;;;4776903;29;20074;-65
2023/03/12 06:05:21;;;;;;;2.83;1.23;;;;;;;;;;4798008;29;20105;-62
2023/03/12 06:07:51;;;;;;;1.80;1.00;;;;;;;;;;4786659;29;20062;-62
2023/03/12 06:10:21;;;;;;;8.10;1.85;;;;;;;;;;4796696;29;20451;-62
2023/03/12 06:12:51;;;;;;;5.85;1.42;;;;;;;;;;4809680;29;20051;-62
2023/03/12 06:15:20;;;;;;;4.05;1.25;;;;;;;;;;4792488;29;20074;-63
2023/03/12 06:17:50;;;;;;;4.68;1.40;;;;;;;;;;4758284;30;20513;-65
2023/03/12 06:20:20;;;;;;;3.75;1.30;;;;;;;;;;4761558;30;20560;-66
2023/03/12 06:22:50;;;;;;;3.55;1.30;;;;;;;;;;4779514;30;20055;-65
2023/03/12 06:25:20;;;;;;;2.28;1.48;;;;;;;;;;4797113;29;20067;-66
2023/03/12 06:27:50;;;;;;;3.88;1.10;;;;;;;;;;4760339;30;20056;-63
2023/03/12 06:30:20;;;;;;;4.70;1.25;;;;;;;;;;4744613;30;20075;-62
2023/03/12 06:32:49;;;;;;;3.25;1.30;;;;;;;;;;4756679;30;20071;-63
2023/03/12 06:35:20;;;;;;;3.83;1.10;;;;;;;;;;4783726;29;20066;-61
2023/03/12 06:37:50;;;;;;;5.43;1.20;;;;;;;;;;4801874;29;20563;-64
2023/03/12 06:40:19;;;;;;;4.20;1.30;;;;;;;;;;4785385;29;20066;-64
2023/03/12 06:42:49;;;;;;;2.30;1.10;;;;;;;;;;4789930;29;20078;-67
2023/03/12 06:45:19;;;;;;;3.50;1.30;;;;;;;;;;4786867;29;20616;-63
2023/03/12 06:47:49;;;;;;;6.60;1.73;;;;;;;;;;4797559;29;20547;-67
2023/03/12 06:50:19;;;;;;;5.70;1.38;;;;;;;;;;4818442;29;20065;-62
2023/03/12 06:52:49;;;;;;;4.97;1.30;;;;;;;;;;4859799;29;20963;-64
2023/03/12 06:55:19;;;;;;;2.33;1.15;;;;;;;;;;4905581;29;20428;-65
2023/03/12 06:57:48;;;;;;;5.38;1.42;;;;;;;;;;4899229;28;20055;-61
2023/03/12 07:00:19;;;;;;;5.50;1.20;;;;;;;;;;4969732;28;20502;-62
2023/03/12 07:02:49;;;;;;;3.08;1.00;;;;;;;;;;4941069;28;20070;-62
2023/03/12 07:05:18;;;;;;;2.90;0.93;;;;;;;;;;5043464;28;20063;-63
2023/03/12 07:07:49;;;;;;;3.30;1.27;;;;;;;;;;5064080;28;20645;-64
2023/03/12 07:10:20;;;;;;;2.30;1.10;;;;;;;;;;5063516;28;20071;-63
2023/03/12 07:12:50;;;;;;;5.75;1.10;;;;;;;;;;5064107;28;20048;-63
2023/03/12 07:15:20;;;;;;;2.90;1.40;;;;;;;;;;5013552;28;20059;-65
2023/03/12 07:17:50;;;;;;;2.80;1.25;;;;;;;;;;5029922;28;20052;-62
2023/03/12 07:20:19;;;;;;;3.75;1.60;;;;;;;;;;5065180;28;20048;-64
2023/03/12 07:22:49;;;;;;;5.35;1.30;;;;;;;;;;5028112;28;20172;-66
2023/03/12 07:25:19;;;;;;;6.00;1.73;;;;;;;;;;4994403;28;20452;-61
2023/03/12 07:27:48;;;;;;;2.65;1.10;;;;;;;;;;4995125;28;20066;-62
2023/03/12 07:30:18;;;;;;;2.38;1.42;;;;;;;;;;5026881;28;20533;-65
2023/03/12 07:32:48;;;;;;;2.13;1.30;;;;;;;;;;5023356;28;20065;-68
2023/03/12 07:35:18;;;;;;;4.63;1.00;;;;;;;;;;4990930;28;20428;-64
2023/03/12 07:37:47;;;;;;;6.05;1.10;;;;;;;;;;4991077;28;20050;-64
2023/03/12 07:40:17;;;;;;;2.33;1.20;;;;;;;;;;5023354;28;20057;-62
2023/03/12 07:42:47;;;;;;;2.63;0.88;;;;;;;;;;4998734;28;20225;-65
2023/03/12 07:45:18;;;;;;;3.53;0.80;;;;;;;;;;4973025;28;20681;-62
2023/03/12 07:47:48;;;;;;;2.80;1.10;;;;;;;;;;4974849;28;20097;-63
2023/03/12 07:50:19;;;;;;;3.92;1.00;;;;;;;;;;4959872;28;20085;-62
2023/03/12 07:52:49;;;;;;;4.57;1.65;;;;;;;;;;5008185;28;20058;-63
2023/03/12 07:55:20;;;;;;;7.05;1.05;;;;;;;;;;5006378;28;20057;-65
2023/03/12 07:57:50;;;;;;;2.60;0.98;;;;;;;;;;5003907;28;20062;-64
2023/03/12 08:00:20;;;;;;;3.70;0.98;;;;;;;;;;4989092;28;20060;-64
2023/03/12 08:02:51;;;;;;;6.47;1.20;;;;;;;;;;5044511;28;20057;-65
2023/03/12 08:05:23;;;;;;;2.22;0.93;;;;;;;;;;5046084;28;20075;-63
2023/03/12 08:07:54;;;;;;;2.72;1.00;;;;;;;;;;5047005;28;20072;-64
2023/03/12 08:10:23;;;;;;;5.35;1.30;;;;;;;;;;5047289;28;20064;-62
2023/03/12 08:12:53;;;;;;;2.42;0.95;;;;;;;;;;5051408;28;20504;-62
2023/03/12 08:15:24;;;;;;;2.35;1.08;;;;;;;;;;5067799;28;20056;-63
2023/03/12 08:17:54;;;;;;;3.13;1.10;;;;;;;;;;5050816;28;20528;-63
2023/03/12 08:20:23;;;;;;;1.98;0.98;;;;;;;;;;5049730;28;20643;-63
2023/03/12 08:22:53;;;;;;;3.85;0.93;;;;;;;;;;5026365;28;20057;-63
2023/03/12 08:25:23;;;;;;;5.15;1.25;;;;;;;;;;5026178;28;20568;-65
2023/03/12 08:27:53;;;;;;;4.38;1.30;;;;;;;;;;5026829;28;20060;-64
2023/03/12 08:30:23;;;;;;;4.65;1.30;;;;;;;;;;5042806;28;20065;-64
2023/03/12 08:32:57;;;;;;;3.03;1.20;;;;;;;;;;5045123;28;20618;-64
2023/03/12 08:35:27;;;;;;;5.13;1.17;;;;;;;;;;5016122;28;20061;-61
2023/03/12 08:37:59;;;;;;;3.78;1.02;;;;;;;;;;5050984;28;20056;-61
2023/03/12 08:40:29;;;;;;;2.83;1.35;;;;;;;;;;5017863;28;20068;-62
2023/03/12 08:42:59;;;;;;;4.25;1.20;;;;;;;;;;5050735;28;20483;-65
2023/03/12 08:45:31;;;;;;;2.60;1.10;;;;;;;;;;5028381;28;20547;-67
2023/03/12 08:48:02;;;;;;;5.72;1.20;;;;;;;;;;5009347;28;20634;-61
2023/03/12 08:50:32;;;;;;;4.38;1.10;;;;;;;;;;5010235;28;20065;-63
2023/03/12 08:53:03;;;;;;;6.50;1.42;;;;;;;;;;4993471;28;20058;-64
2023/03/12 08:55:34;;;;;;;9.68;1.27;;;;;;;;;;5026242;28;20505;-64
2023/03/12 08:58:04;;;;;;;2.60;1.20;;;;;;;;;;5009171;28;20057;-63
2023/03/12 09:00:35;;;;;;;2.53;1.10;;;;;;;;;;4995952;28;20452;-63
2023/03/12 09:03:05;;;;;;;5.28;0.80;;;;;;;;;;5029990;28;20065;-62
2023/03/12 09:05:35;;;;;;;3.17;0.98;;;;;;;;;;5030569;28;20045;-61
2023/03/12 09:08:05;;;;;;;8.85;1.10;;;;;;;;;;5030115;28;20088;-63
2023/03/12 09:10:35;;;;;;;2.33;0.93;;;;;;;;;;5017187;28;20065;-65
2023/03/12 09:13:06;;;;;;;8.05;1.70;;;;;;;;;;5005850;28;20422;-64
2023/03/12 09:15:36;;;;;;;4.20;1.27;;;;;;;;;;5005725;28;20061;-62
2023/03/12 09:18:06;;;;;;;1.50;0.82;;;;;;;;;;5005405;28;20041;-65
2023/03/12 09:20:36;;;;;;;2.28;0.73;;;;;;;;;;5005863;28;20057;-66
2023/03/12 09:23:06;;;;;;;2.45;1.17;;;;;;;;;;5016429;28;20065;-65
2023/03/12 09:25:36;;;;;;;4.60;1.00;;;;;;;;;;5012326;28;20449;-61
2023/03/12 09:28:06;;;;;;;4.63;1.10;;;;;;;;;;5014069;28;20465;-65
2023/03/12 09:30:37;;;;;;;3.47;1.00;;;;;;;;;;5032594;28;20046;-61
2023/03/12 09:33:07;;;;;;;5.35;1.20;;;;;;;;;;5013099;28;20603;-65
2023/03/12 09:35:37;;;;;;;1.80;1.00;;;;;;;;;;5028753;28;20049;-67
2023/03/12 09:38:10;;;;;;;6.35;0.93;;;;;;;;;;5026061;28;20061;-65
2023/03/12 09:40:46;;;;;;;5.28;1.10;;;;;;;;;;5028349;28;20049;-62
2023/03/12 09:43:39;;;;;;;4.25;1.17;;;;;;;;;;5028720;28;20520;-62
2023/03/12 09:46:17;;;;;;;2.22;0.90;;;;;;;;;;5028182;28;20053;-65
2023/03/12 09:48:49;;;;;;;4.25;0.95;;;;;;;;;;5009198;28;20057;-62
2023/03/12 09:51:31;;;;;;;2.10;1.20;;;;;;;;;;5032116;28;20544;-67
2023/03/12 09:54:06;;;;;;;4.38;1.35;;;;;;;;;;5045778;28;20064;-64
2023/03/12 09:56:36;;;;;;;2.58;0.93;;;;;;;;;;5032015;28;20507;-64
2023/03/12 09:59:11;;;;;;;4.68;1.00;;;;;;;;;;5012819;28;20061;-68
2023/03/12 10:01:50;;;;;;;2.95;0.82;;;;;;;;;;5027776;28;20049;-62
2023/03/12 10:04:45;;;;;;;4.30;1.20;;;;;;;;;;5028014;28;20053;-64
2023/03/12 10:07:56;;;;;;;3.90;0.98;;;;;;;;;;5008794;28;20049;-64
2023/03/12 10:11:08;;;;;;;3.92;0.85;;;;;;;;;;5024409;28;20212;-64
2023/03/12 10:14:07;;;;;;;2.90;1.13;;;;;;;;;;4930809;29;20063;-65
2023/03/12 10:16:57;;;;;;;2.83;1.20;;;;;;;;;;4950965;29;20515;-63
2023/03/12 10:19:52;;;;;;;5.32;1.33;;;;;;;;;;4951319;29;20059;-62
2023/03/12 10:22:31;;;;;;;8.40;1.30;;;;;;;;;;4951161;29;20051;-65
2023/03/12 10:25:30;;;;;;;4.93;1.75;;;;;;;;;;4947478;28;20070;-63
2023/03/12 10:28:12;;;;;;;9.18;1.77;;;;;;;;;;4908591;29;20075;-64
2023/03/12 10:30:53;;;;;;;6.03;1.63;;;;;;;;;;4908240;29;20759;-64
2023/03/12 10:33:32;;;;;;;6.07;1.42;;;;;;;;;;4923264;29;20056;-63
2023/03/12 10:36:14;;;;;;;4.90;1.17;;;;;;;;;;4908509;29;20051;-63
2023/03/12 10:38:44;;;;;;;4.88;1.65;;;;;;;;;;4893142;29;20520;-63
2023/03/12 10:41:17;;;;;;;4.70;1.38;;;;;;;;;;4912509;29;20060;-67
2023/03/12 10:43:47;;;;;;;3.60;1.17;;;;;;;;;;4865930;29;20067;-62
2023/03/12 10:46:35;;;;;;;2.47;0.93;;;;;;;;;;4911938;29;20064;-64
2023/03/12 10:49:37;;;;;;;3.53;1.00;;;;;;;;;;4911311;29;20063;-64
2023/03/12 10:52:18;;;;;;;4.53;1.20;;;;;;;;;;4946761;28;20074;-63
2023/03/12 10:54:51;;;;;;;4.35;1.00;;;;;;;;;;4962138;28;20063;-64
2023/03/12 10:57:21;;;;;;;4.05;0.90;;;;;;;;;;4898771;29;20459;-68
2023/03/12 10:59:51;;;;;;;2.50;1.00;;;;;;;;;;4907811;29;20448;-64
2023/03/12 11:02:32;;;;;;;3.25;0.82;;;;;;;;;;4891835;29;20055;-64
2023/03/12 11:05:17;;;;;;;1.73;0.90;;;;;;;;;;4938419;29;20132;-64
2023/03/12 11:07:47;;;;;;;2.55;1.05;;;;;;;;;;4949878;29;20066;-66
2023/03/12 11:10:20;;;;;;;3.30;1.00;;;;;;;;;;4950030;29;20269;-64
2023/03/12 11:13:01;;;;;;;4.20;1.35;;;;;;;;;;4950551;29;20046;-64
2023/03/12 11:15:41;;;;;;;4.90;1.05;;;;;;;;;;4898457;29;20427;-69
2023/03/12 11:18:31;;;;;;;1.88;0.90;;;;;;;;;;4946257;29;20051;-64
2023/03/12 11:21:12;;;;;;;;;;;;;;;;;;4926815;29;20796;-64
2023/03/12 11:24:05;;;;;;;4.00;1.00;;;;;;;;;;4926370;29;19938;-66
2023/03/12 11:26:49;;;;;;;2.05;0.90;;;;;;;;;;4926940;29;20544;-64
2023/03/12 11:29:32;;;;;;;1.95;0.90;;;;;;;;;;4966803;28;20061;-63
2023/03/12 11:32:19;;;;;;;2.10;1.00;;;;;;;;;;5004744;28;20062;-64
2023/03/12 11:34:50;;;;;;;2.38;1.00;;;;;;;;;;5007877;28;20576;-63
2023/03/12 11:37:43;;;;;;;2.75;0.85;;;;;;;;;;5012048;28;20057;-63
2023/03/12 11:40:18;;;;;;;1.70;0.80;;;;;;;;;;4975758;28;20084;-64
2023/03/12 11:43:00;;;;;;;3.05;1.10;;;;;;;;;;4975513;28;20062;-67
2023/03/12 11:45:47;;;;;;;6.88;1.02;;;;;;;;;;5007474;28;20060;-63
2023/03/12 11:48:31;;;;;;;3.70;0.80;;;;;;;;;;5027446;28;20058;-63
2023/03/12 11:51:22;;;;;;;1.60;0.57;;;;;;;;;;4978777;28;20057;-64
2023/03/12 11:53:52;;;;;;;1.13;0.65;;;;;;;;;;5049065;28;20057;-64
2023/03/12 11:56:33;;;;;;;2.25;1.00;;;;;;;;;;5051588;28;20063;-63
2023/03/12 11:59:26;;;;;;;1.13;0.50;;;;;;;;;;5050943;28;20045;-61
2023/03/12 12:01:59;;;;;;;2.15;0.65;;;;;;;;;;5051526;28;20420;-65
2023/03/12 12:04:46;;;;;;;1.95;0.55;;;;;;;;;;5030715;28;20052;-63
2023/03/12 12:07:38;;;;;;;2.78;0.90;;;;;;;;;;5066809;28;20195;-64
2023/03/12 12:10:31;;;;;;;6.47;1.95;;;;;;;;;;5066215;28;20053;-63
2023/03/12 12:13:25;;;;;;;9.15;3.10;;;;;;;;;;5000395;28;20519;-64
2023/03/12 12:16:25;;;;;;;1.77;1.13;;;;;;;;;;5016938;28;20415;-64
2023/03/12 12:19:06;;;;;;;6.45;2.00;;;;;;;;;;5032315;28;20055;-61
2023/03/12 12:22:10;;;;;;;1.13;0.70;;;;;;;;;;5030735;28;20056;-63
2023/03/12 12:24:54;;;;;;;2.42;0.50;;;;;;;;;;5068139;28;20427;-62
2023/03/12 12:27:28;;;;;;;1.08;0.52;;;;;;;;;;5053054;28;20048;-63
2023/03/12 12:30:09;;;;;;;3.35;0.60;;;;;;;;;;5048596;28;20040;-63
2023/03/12 12:33:14;;;;;;;2.90;0.68;;;;;;;;;;5045648;28;20127;-63
2023/03/12 12:35:45;;;;;;;3.80;1.73;;;;;;;;;;5050411;28;20645;-62
2023/03/12 12:38:29;;;;;;;2.08;0.65;;;;;;;;;;5086627;28;20065;-63
2023/03/12 12:41:05;;;;;;;1.25;0.65;;;;;;;;;;5086185;28;20063;-65
2023/03/12 12:43:40;;;;;;;1.55;0.65;;;;;;;;;;5054480;28;20070;-64
2023/03/12 12:46:21;;;;;;;1.23;0.63;;;;;;;;;;5090909;28;20606;-61
2023/03/12 12:49:00;;;;;;;3.00;0.60;;;;;;;;;;5089129;28;20393;-62
2023/03/12 12:51:34;;;;;;;3.80;0.70;;;;;;;;;;5090265;28;20060;-62
2023/03/12 12:54:09;;;;;;;1.75;0.52;;;;;;;;;;5027513;28;20880;-63
2023/03/12 12:56:49;;;;;;;2.30;0.60;;;;;;;;;;5019559;28;20375;-64
2023/03/12 12:59:34;;;;;;;0.90;0.52;;;;;;;;;;5013673;28;20045;-64
2023/03/12 13:02:25;;;;;;;1.00;0.40;;;;;;;;;;5010629;28;20076;-63
2023/03/12 13:04:58;;;;;;;3.70;1.27;;;;;;;;;;4989359;28;20061;-66
2023/03/12 13:07:32;;;;;;;4.13;3.13;;;;;;;;;;4991538;28;20073;-63
2023/03/12 13:10:20;;;;;;;1.80;0.50;;;;;;;;;;4992321;28;20069;-65
2023/03/12 13:12:54;;;;;;;1.58;0.50;;;;;;;;;;5008786;28;20057;-65
2023/03/12 13:15:30;;;;;;;1.77;0.68;;;;;;;;;;5009015;28;20054;-62
2023/03/12 13:18:27;;;;;;;3.00;1.15;;;;;;;;;;5014121;28;20821;-62
2023/03/12 13:21:19;;;;;;;1.08;0.60;;;;;;;;;;5076631;28;20053;-65
2023/03/12 13:24:21;;;;;;;1.40;0.68;;;;;;;;;;5047347;28;20044;-64
2023/03/12 13:27:23;;;;;;;2.88;0.70;;;;;;;;;;5047424;28;20048;-63
2023/03/12 13:29:56;;;;;;;2.38;0.95;;;;;;;;;;5022232;28;20079;-66
2023/03/12 13:32:50;;;;;;;1.48;0.70;;;;;;;;;;5038617;28;20059;-62
2023/03/12 13:35:21;;;;;;;1.10;0.50;;;;;;;;;;5064833;28;20071;-62
2023/03/12 13:37:50;;;;;;;2.08;0.40;;;;;;;;;;5069154;28;20135;-63
2023/03/12 13:40:29;;;;;;;2.45;0.52;;;;;;;;;;5051777;28;20063;-63
2023/03/12 13:43:13;;;;;;;3.50;1.23;;;;;;;;;;5026986;28;20061;-65
2023/03/12 13:46:05;;;;;;;4.22;3.00;;;;;;;;;;5024608;28;20067;-65
2023/03/12 13:48:45;;;;;;;3.20;1.02;;;;;;;;;;4992174;28;20057;-63
2023/03/12 13:51:23;;;;;;;1.10;0.50;;;;;;;;;;4971623;28;20056;-64
2023/03/12 13:53:57;;;;;;;1.20;0.60;;;;;;;;;;5023511;28;20823;-65
2023/03/12 13:56:32;;;;;;;7.63;3.70;;;;;;;;;;5021921;28;20062;-62
2023/03/12 13:59:14;;;;;;;5.45;2.80;;;;;;;;;;5043624;28;20060;-63
2023/03/12 14:01:50;;;;;;;14.80;6.65;;;;;;;;;;5027666;28;20084;-62
2023/03/12 14:04:24;;;;;;;5.60;2.97;;;;;;;;;;5012054;28;20049;-63
2023/03/12 14:07:14;;;;;;;6.55;3.45;;;;;;;;;;5027551;28;20057;-62
2023/03/12 14:10:19;;;;;;;7.43;3.60;;;;;;;;;;5023478;28;20045;-63
2023/03/12 14:13:12;;;;;;;1.60;1.02;;;;;;;;;;4948535;28;20202;-63
2023/03/12 14:16:04;;;;;;;1.80;0.40;;;;;;;;;;4983291;28;20085;-62
2023/03/12 14:18:37;;;;;;;0.70;0.60;;;;;;;;;;4983589;28;20794;-63
2023/03/12 14:21:12;;;;;;;2.28;0.70;;;;;;;;;;4970402;28;20058;-61
2023/03/12 14:24:31;;;;;;;7.03;2.63;;;;;;;;;;5025584;28;20525;-61
2023/03/12 14:27:04;;;;;;;1.08;0.70;;;;;;;;;;4955338;28;20501;-63
2023/03/12 14:29:49;;;;;;;9.23;4.10;;;;;;;;;;4987298;28;20063;-61
2023/03/12 14:32:31;;;;;;;3.92;1.20;;;;;;;;;;4986299;28;20077;-63
2023/03/12 14:35:24;;;;;;;3.38;1.33;;;;;;;;;;4982451;28;20061;-64
2023/03/12 14:37:54;;;;;;;3.30;1.70;;;;;;;;;;4977021;28;20054;-62
2023/03/12 14:40:29;;;;;;;2.15;0.60;;;;;;;;;;4983490;28;20198;-63
2023/03/12 14:43:00;;;;;;;1.05;0.52;;;;;;;;;;4947191;28;20054;-65
2023/03/12 14:45:51;;;;;;;1.52;0.40;;;;;;;;;;4948046;28;20644;-64
2023/03/12 14:48:23;;;;;;;2.15;0.65;;;;;;;;;;4948416;29;20447;-60
2023/03/12 14:50:56;;;;;;;0.80;0.40;;;;;;;;;;4985853;28;20593;-65
2023/03/12 14:53:32;;;;;;;9.95;5.47;;;;;;;;;;4987595;28;20062;-63
2023/03/12 14:56:14;;;;;;;4.32;1.65;;;;;;;;;;4987883;28;20062;-65
2023/03/12 14:58:47;;;;;;;4.15;2.08;;;;;;;;;;4928339;28;20043;-66
2023/03/12 15:01:30;;;;;;;15.35;9.20;;;;;;;;;;4928245;29;20099;-64
2023/03/12 15:04:06;;;;;;;1.20;0.73;;;;;;;;;;4955486;28;20102;-63
2023/03/12 15:06:42;;;;;;;2.08;1.02;;;;;;;;;;4963441;28;20058;-67
2023/03/12 15:09:26;;;;;;;2.80;1.13;;;;;;;;;;4963961;28;20065;-61
2023/03/12 15:11:57;;;;;;;1.42;0.80;;;;;;;;;;4966996;28;20058;-62
2023/03/12 15:14:31;;;;;;;3.85;2.00;;;;;;;;;;4954756;28;20059;-62
2023/03/12 15:17:04;;;;;;;2.25;0.90;;;;;;;;;;4904855;28;20067;-61
2023/03/12 15:19:39;;;;;;;2.92;1.35;;;;;;;;;;4967609;28;20063;-64
2023/03/12 15:22:19;;;;;;;2.47;1.00;;;;;;;;;;4985033;28;20069;-64
2023/03/12 15:24:49;;;;;;;4.10;0.70;;;;;;;;;;4928213;28;20050;-63
2023/03/12 15:27:29;;;;;;;1.38;0.70;;;;;;;;;;4967788;28;20494;-65
2023/03/12 15:30:00;;;;;;;0.63;0.45;;;;;;;;;;4951526;28;20066;-63
2023/03/12 15:32:30;;;;;;;3.10;0.50;;;;;;;;;;4981172;28;20058;-63